This is the latest recevied weather packets stored in our database for station/object DB0BQ-11. If no packets are shown the sender has not sent any weather packets the latest 10 day(s).
| Time | Temp. | Humidity | Pressure | Rain* | Wind** | Luminosity | Snow |
|---|---|---|---|---|---|---|---|
| 1777638632 | 24.44° C | 21% | 1024.4 hPa | - | - | - | - |
| 1777637428 | 24.44° C | 22% | 1024.4 hPa | - | - | - | - |
| 1777635019 | 22.78° C | 24% | 1025.2 hPa | - | - | - | - |
| 1777628416 | 20.56° C | 28% | 1026.4 hPa | - | - | - | - |
| 1777623016 | 17.22° C | 39% | 1026.8 hPa | - | - | - | - |
| 1777619421 | 14.44° C | 45% | 1027 hPa | - | - | - | - |
| 1777615827 | 10.56° C | 60% | 1027.2 hPa | - | - | - | - |
| 1777608618 | 6.67° C | 72% | 1026.9 hPa | - | - | - | - |
| 1777605043 | 8.33° C | 65% | 1026.8 hPa | - | - | - | - |
| 1777599019 | 10° C | 56% | 1026.6 hPa | - | - | - | - |
| 1777598416 | 10° C | 55% | 1026.7 hPa | - | - | - | - |
| 1777597232 | 10.56° C | 54% | 1026.6 hPa | - | - | - | - |
| 1777593034 | 11.11° C | 52% | 1027 hPa | - | - | - | - |
| 1777592452 | 11.11° C | 51% | 1027.1 hPa | - | - | - | - |
| 1777585845 | 12.78° C | 45% | 1027.1 hPa | - | - | - | - |
| 1777582853 | 13.89° C | 42% | 1027 hPa | - | - | - | - |
| 1777582231 | 13.89° C | 42% | 1027 hPa | - | - | - | - |
| 1777581046 | 14.44° C | 41% | 1026.9 hPa | - | - | - | - |
| 1777580423 | 14.44° C | 40% | 1026.8 hPa | - | - | - | - |
| 1777574151 | 17.22° C | 32% | 1025.9 hPa | - | - | - | - |
| 1777572926 | 18.33° C | 30% | 1025.9 hPa | - | - | - | - |
| 1777571722 | 18.89° C | 28% | 1025.8 hPa | - | - | - | - |
| 1777568729 | 20° C | 26% | 1025.8 hPa | - | - | - | - |
| 1777566320 | 20° C | 24% | 1026 hPa | - | - | - | - |
| 1777565717 | 20° C | 24% | 1025.9 hPa | - | - | - | - |
* Rain since midnight (hover to see other rain measurements)
** Current wind speed in m/s (hover to see current wind gust speed)